createdAt,value
2019-04-06T00:01:58.968Z,38.45
2019-04-06T00:04:26.815Z,39.70
2019-04-06T00:06:54.658Z,40.20
2019-04-06T00:09:22.546Z,39.10
2019-04-06T00:11:50.394Z,38.23
2019-04-06T00:14:18.263Z,39.13
2019-04-06T00:16:46.163Z,42.30
2019-04-06T00:19:14.086Z,36.48
2019-04-06T00:21:41.918Z,38.02
2019-04-06T00:24:09.799Z,41.20
2019-04-06T00:26:37.655Z,39.18
2019-04-06T00:29:05.591Z,39.80
2019-04-06T00:32:07.922Z,39.18
2019-04-06T00:34:35.920Z,38.38
2019-04-06T00:37:03.972Z,38.35
2019-04-06T00:39:31.823Z,37.58
2019-04-06T00:41:59.688Z,39.25
2019-04-06T00:44:27.723Z,40.20
2019-04-06T00:46:55.579Z,38.78
2019-04-06T00:49:23.408Z,38.42
2019-04-06T00:51:51.373Z,38.92
2019-04-06T00:54:19.191Z,40.03
2019-04-06T00:56:47.077Z,39.67
2019-04-06T00:59:14.928Z,37.95
2019-04-06T01:01:42.773Z,39.18
2019-04-06T01:04:10.665Z,39.05
2019-04-06T01:06:38.533Z,39.67
2019-04-06T01:09:08.948Z,36.30
2019-04-06T01:11:37.016Z,40.75
2019-04-06T01:14:04.849Z,39.20
2019-04-06T01:16:32.765Z,41.25
2019-04-06T01:19:00.620Z,40.48
2019-04-06T01:21:28.581Z,41.40
2019-04-06T01:23:56.388Z,41.85
2019-04-06T01:26:24.287Z,37.78
2019-04-06T01:28:52.107Z,42.65
2019-04-06T01:31:19.998Z,40.08
2019-04-06T01:33:47.863Z,40.78
2019-04-06T01:36:15.888Z,40.33
2019-04-06T01:38:43.731Z,36.93
2019-04-06T01:41:11.620Z,37.78
2019-04-06T01:43:39.529Z,37.08
2019-04-06T01:46:07.407Z,43.48
2019-04-06T01:48:35.347Z,37.50
2019-04-06T01:51:03.205Z,36.20
2019-04-06T01:53:31.119Z,37.80
2019-04-06T01:55:59.050Z,39.85
2019-04-06T01:58:26.926Z,38.67
2019-04-06T02:01:16.912Z,36.70
2019-04-06T02:03:44.765Z,39.75
2019-04-06T02:06:12.613Z,37.78
2019-04-06T02:08:40.477Z,37.38
2019-04-06T02:11:08.323Z,40.28
2019-04-06T02:13:36.207Z,38.88
2019-04-06T02:16:04.052Z,42.38
2019-04-06T02:18:32.027Z,38.80
2019-04-06T02:20:59.865Z,38.85
2019-04-06T02:23:27.761Z,40.88
2019-04-06T02:25:55.585Z,39.00
2019-04-06T02:28:23.465Z,36.33
2019-04-06T02:31:05.903Z,36.15
2019-04-06T02:33:52.869Z,36.33
2019-04-06T02:36:35.183Z,42.35
2019-04-06T02:39:19.503Z,37.98
2019-04-06T02:41:50.821Z,39.78
2019-04-06T02:44:18.742Z,38.63
2019-04-06T02:46:46.596Z,39.98
2019-04-06T02:49:14.484Z,38.23
2019-04-06T02:51:42.323Z,37.42
2019-04-06T02:54:10.170Z,41.05
2019-04-06T02:56:45.638Z,38.20
2019-04-06T02:59:07.744Z,40.38
2019-04-06T03:01:35.599Z,38.88
2019-04-06T03:04:03.428Z,38.80
2019-04-06T03:06:31.460Z,40.10
2019-04-06T03:08:59.394Z,37.42
2019-04-06T03:11:27.402Z,38.73
2019-04-06T03:13:55.252Z,40.83
2019-04-06T03:16:23.296Z,40.00
2019-04-06T03:18:51.184Z,40.03
2019-04-06T03:21:19.124Z,35.70
2019-04-06T03:23:51.416Z,38.35
2019-04-06T03:26:16.748Z,39.67
2019-04-06T03:28:44.582Z,41.25
2019-04-06T03:31:12.434Z,40.78
2019-04-06T03:33:40.387Z,39.80
2019-04-06T03:36:08.253Z,45.73
2019-04-06T03:38:36.107Z,43.78
2019-04-06T03:41:04.354Z,40.90
2019-04-06T03:43:32.220Z,37.93
2019-04-06T03:46:00.436Z,37.38
2019-04-06T03:48:28.379Z,37.38
2019-04-06T03:50:56.421Z,39.65
2019-04-06T03:53:24.297Z,40.48
2019-04-06T03:55:52.282Z,38.15
2019-04-06T03:58:20.240Z,36.33
2019-04-06T04:00:48.333Z,37.42
2019-04-06T04:03:16.366Z,38.92
2019-04-06T04:05:44.259Z,39.45
2019-04-06T04:08:12.164Z,39.00
2019-04-06T04:10:40.038Z,37.13
2019-04-06T04:13:07.893Z,37.93
2019-04-06T04:15:35.717Z,37.03
2019-04-06T04:18:03.792Z,40.15
2019-04-06T04:20:31.912Z,39.30
2019-04-06T04:22:59.798Z,44.95
2019-04-06T04:25:27.819Z,40.28
2019-04-06T04:27:55.699Z,39.08
2019-04-06T04:30:32.302Z,42.67
2019-04-06T04:32:53.387Z,41.37
2019-04-06T04:35:21.257Z,41.50
2019-04-06T04:37:49.182Z,43.83
2019-04-06T04:40:17.105Z,42.95
2019-04-06T04:42:45.210Z,41.28
2019-04-06T04:45:13.103Z,43.38
2019-04-06T04:47:41.014Z,43.08
2019-04-06T04:50:08.910Z,44.08
2019-04-06T04:52:36.768Z,43.28
2019-04-06T04:55:05.016Z,46.08
2019-04-06T04:57:40.095Z,46.80
2019-04-06T05:00:02.535Z,45.78
2019-04-06T05:02:30.371Z,47.08
2019-04-06T05:04:58.410Z,43.35
2019-04-06T05:07:26.399Z,44.95
2019-04-06T05:09:54.403Z,45.75
2019-04-06T05:12:22.428Z,49.18
2019-04-06T05:15:00.455Z,46.65
2019-04-06T05:17:28.318Z,43.45
2019-04-06T05:19:56.212Z,44.35
2019-04-06T05:22:24.120Z,44.50
2019-04-06T05:24:52.001Z,47.67
2019-04-06T05:27:19.921Z,46.30
2019-04-06T05:29:47.905Z,45.17
2019-04-06T05:32:15.773Z,47.15
2019-04-06T05:34:43.668Z,46.98
2019-04-06T05:37:11.759Z,44.65
2019-04-06T05:39:39.658Z,44.65
2019-04-06T05:42:07.489Z,50.83
2019-04-06T05:44:36.689Z,47.30
2019-04-06T05:47:04.556Z,43.75
2019-04-06T05:49:32.391Z,45.95
2019-04-06T05:52:00.267Z,47.25
2019-04-06T05:54:28.131Z,46.02
2019-04-06T05:56:56.219Z,45.83
2019-04-06T05:59:24.140Z,46.08
2019-04-06T06:01:52.382Z,45.12
2019-04-06T06:04:20.233Z,45.60
2019-04-06T06:06:48.110Z,48.20
2019-04-06T06:09:15.944Z,44.63
2019-04-06T06:11:43.815Z,44.23
2019-04-06T06:14:11.670Z,43.42
2019-04-06T06:16:39.517Z,44.45
2019-04-06T06:19:07.355Z,45.08
2019-04-06T06:21:35.292Z,43.20
2019-04-06T06:24:03.158Z,47.67
2019-04-06T06:26:31.170Z,44.98
2019-04-06T06:28:59.100Z,42.58
2019-04-06T06:31:26.959Z,41.23
2019-04-06T06:33:55.194Z,41.05
2019-04-06T06:36:23.252Z,41.65
2019-04-06T06:38:51.114Z,46.70
2019-04-06T06:41:18.958Z,44.45
2019-04-06T06:43:46.867Z,42.35
2019-04-06T06:46:14.739Z,45.65
2019-04-06T06:48:43.146Z,44.53
2019-04-06T06:51:11.426Z,43.33
2019-04-06T06:53:39.300Z,41.33
2019-04-06T06:56:07.278Z,43.10
2019-04-06T06:58:35.189Z,43.98
2019-04-06T07:01:03.293Z,38.73
2019-04-06T07:03:31.705Z,40.08
2019-04-06T07:06:00.073Z,45.95
2019-04-06T07:08:28.045Z,41.37
2019-04-06T07:10:56.108Z,40.95
2019-04-06T07:13:24.297Z,39.45
2019-04-06T07:15:52.152Z,42.80
2019-04-06T07:18:20.971Z,37.88
2019-04-06T07:20:48.917Z,38.40
2019-04-06T07:23:16.818Z,37.90
2019-04-06T07:25:56.201Z,35.92
2019-04-06T07:28:14.319Z,37.98
2019-04-06T07:30:42.625Z,36.63
2019-04-06T07:33:10.502Z,36.42
2019-04-06T07:35:38.415Z,36.83
2019-04-06T07:38:06.375Z,33.98
2019-04-06T07:40:34.362Z,35.35
2019-04-06T07:43:02.220Z,35.75
2019-04-06T07:45:30.099Z,35.68
2019-04-06T07:47:58.154Z,37.93
2019-04-06T07:50:26.074Z,37.67
2019-04-06T07:52:53.947Z,34.33
2019-04-06T07:55:21.932Z,33.65
2019-04-06T07:57:49.809Z,35.05
2019-04-06T08:00:17.684Z,35.20
2019-04-06T08:02:45.545Z,32.03
2019-04-06T08:05:13.446Z,34.30
2019-04-06T08:07:41.324Z,35.30
2019-04-06T08:10:10.944Z,33.18
2019-04-06T08:12:38.768Z,35.30
2019-04-06T08:15:06.815Z,34.20
2019-04-06T08:17:34.686Z,33.20
2019-04-06T08:20:02.838Z,32.48
2019-04-06T08:22:30.687Z,36.68
2019-04-06T08:24:58.542Z,32.50
2019-04-06T08:27:26.581Z,38.45
2019-04-06T08:29:54.623Z,34.20
2019-04-06T08:32:22.563Z,34.43
2019-04-06T08:34:50.461Z,34.08
2019-04-06T08:37:18.440Z,30.68
2019-04-06T08:39:46.611Z,32.90
2019-04-06T08:42:14.686Z,31.48
2019-04-06T08:44:42.583Z,31.50
2019-04-06T08:47:10.491Z,31.00
2019-04-06T08:49:38.346Z,33.00
2019-04-06T08:52:06.228Z,36.10
2019-04-06T08:54:34.106Z,36.17
2019-04-06T08:57:01.980Z,31.75
2019-04-06T08:59:29.810Z,31.85
2019-04-06T09:01:57.689Z,30.97
2019-04-06T09:04:25.561Z,32.33
2019-04-06T09:06:53.470Z,35.50
2019-04-06T09:09:21.400Z,32.78
2019-04-06T09:11:49.247Z,34.50
2019-04-06T09:14:17.158Z,34.48
2019-04-06T09:16:44.996Z,32.73
2019-04-06T09:19:12.917Z,33.85
2019-04-06T09:21:41.032Z,33.85
2019-04-06T09:24:08.980Z,34.85
2019-04-06T09:26:36.842Z,34.50
2019-04-06T09:29:04.748Z,37.05
2019-04-06T09:31:32.662Z,33.05
2019-04-06T09:34:00.551Z,34.85
2019-04-06T09:36:28.552Z,32.83
2019-04-06T09:38:56.494Z,31.60
2019-04-06T09:41:26.127Z,33.90
2019-04-06T09:43:53.942Z,32.98
2019-04-06T09:46:35.577Z,34.40
2019-04-06T09:49:13.813Z,34.35
2019-04-06T09:51:55.074Z,32.05
2019-04-06T09:54:44.845Z,32.33
2019-04-06T09:57:28.282Z,33.38
2019-04-06T10:00:16.278Z,32.60
2019-04-06T10:03:09.521Z,34.15
2019-04-06T10:05:53.960Z,31.57
2019-04-06T10:08:53.060Z,32.38
2019-04-06T10:11:32.349Z,33.55
2019-04-06T10:14:14.720Z,35.25
2019-04-06T10:17:04.854Z,35.75
2019-04-06T10:19:54.303Z,34.03
2019-04-06T10:22:43.906Z,33.25
2019-04-06T10:25:29.925Z,33.92
2019-04-06T10:28:14.031Z,30.97
2019-04-06T10:31:07.046Z,33.53
2019-04-06T10:33:44.214Z,32.88
2019-04-06T10:36:37.330Z,35.15
2019-04-06T10:39:13.998Z,31.93
2019-04-06T10:42:03.671Z,33.48
2019-04-06T10:44:49.412Z,36.10
2019-04-06T10:47:36.362Z,32.83
2019-04-06T10:50:23.776Z,32.25
2019-04-06T10:53:16.847Z,33.55
2019-04-06T10:56:02.812Z,32.93
2019-04-06T10:58:49.546Z,34.45
2019-04-06T11:01:45.574Z,31.93
2019-04-06T11:04:36.300Z,34.73
2019-04-06T11:07:26.374Z,33.58
2019-04-06T11:10:31.442Z,32.40
2019-04-06T11:13:18.389Z,31.30
2019-04-06T11:16:04.083Z,34.83
2019-04-06T11:18:57.042Z,33.40
2019-04-06T11:21:53.202Z,36.48
2019-04-06T11:24:39.131Z,35.63
2019-04-06T11:27:14.630Z,32.95
2019-04-06T11:30:13.155Z,31.73
2019-04-06T11:33:05.289Z,32.90
2019-04-06T11:35:43.357Z,32.28
2019-04-06T11:38:34.361Z,35.25
2019-04-06T11:41:20.025Z,36.15
2019-04-06T11:43:54.567Z,33.13
2019-04-06T11:46:44.443Z,35.60
2019-04-06T11:49:22.328Z,35.52
2019-04-06T11:52:12.543Z,35.48
2019-04-06T11:54:58.253Z,35.40
2019-04-06T11:57:32.981Z,35.83
2019-04-06T12:00:26.435Z,31.02
2019-04-06T12:03:04.746Z,34.10
2019-04-06T12:05:54.724Z,35.43
2019-04-06T12:08:40.360Z,33.30
2019-04-06T12:11:45.699Z,33.55
2019-04-06T12:14:44.694Z,30.62
2019-04-06T12:17:30.277Z,33.48
2019-04-06T12:20:17.202Z,31.70
2019-04-06T12:23:01.538Z,30.95
2019-04-06T12:25:44.162Z,31.77
2019-04-06T12:28:21.765Z,31.48
2019-04-06T12:31:14.633Z,29.70
2019-04-06T12:34:19.682Z,29.92
2019-04-06T12:37:09.170Z,29.27
2019-04-06T12:39:53.479Z,28.07
2019-04-06T12:42:36.554Z,28.40
2019-04-06T12:45:20.426Z,27.60
2019-04-06T12:48:06.159Z,27.32
2019-04-06T12:50:53.063Z,29.60
2019-04-06T12:53:49.293Z,28.42
2019-04-06T12:56:51.544Z,29.55
2019-04-06T12:59:29.630Z,27.75
2019-04-06T13:02:35.129Z,28.95
2019-04-06T13:05:19.101Z,27.45
2019-04-06T13:07:55.149Z,27.20
2019-04-06T13:10:40.710Z,29.32
2019-04-06T13:13:27.648Z,27.67
2019-04-06T13:16:19.432Z,28.92
2019-04-06T13:19:05.497Z,28.57
2019-04-06T13:21:55.852Z,26.05
2019-04-06T13:24:45.847Z,26.35
2019-04-06T13:27:33.539Z,25.23
2019-04-06T13:30:29.694Z,26.62
2019-04-06T13:33:16.666Z,24.75
2019-04-06T13:35:59.693Z,24.82
2019-04-06T13:38:44.058Z,25.20
2019-04-06T13:41:33.730Z,25.80
2019-04-06T13:44:23.752Z,24.20
2019-04-06T13:47:13.515Z,25.48
2019-04-06T13:49:59.595Z,25.80
2019-04-06T13:52:47.013Z,24.82
2019-04-06T13:55:39.769Z,24.12
2019-04-06T13:58:15.482Z,24.35
2019-04-06T14:00:56.292Z,24.45
2019-04-06T14:03:38.503Z,23.75
2019-04-06T14:06:24.019Z,25.72
2019-04-06T14:09:09.794Z,24.82
2019-04-06T14:11:50.850Z,25.17
2019-04-06T14:14:38.386Z,22.37
2019-04-06T14:17:24.177Z,24.47
2019-04-06T14:20:17.410Z,23.98
2019-04-06T14:22:57.237Z,23.05
2019-04-06T14:25:36.723Z,25.52
2019-04-06T14:28:11.538Z,22.40
2019-04-06T14:31:01.290Z,23.65
2019-04-06T14:34:00.066Z,23.55
2019-04-06T14:36:37.911Z,22.77
2019-04-06T14:39:18.410Z,21.73
2019-04-06T14:42:04.051Z,22.15
2019-04-06T14:44:57.364Z,20.80
2019-04-06T14:47:47.314Z,20.17
2019-04-06T14:50:40.634Z,20.30
2019-04-06T14:53:26.190Z,19.07
2019-04-06T14:55:59.724Z,20.95
2019-04-06T14:58:47.039Z,20.02
2019-04-06T15:01:43.634Z,21.05
2019-04-06T15:04:21.120Z,22.05
2019-04-06T15:07:17.157Z,20.52
2019-04-06T15:09:55.413Z,22.77
2019-04-06T15:12:30.259Z,19.50
2019-04-06T15:15:09.619Z,18.73
2019-04-06T15:17:44.533Z,17.75
2019-04-06T15:20:30.398Z,18.90
2019-04-06T15:23:13.068Z,18.90
2019-04-06T15:26:09.330Z,18.20
2019-04-06T15:28:55.208Z,18.65
2019-04-06T15:31:51.051Z,17.98
2019-04-06T15:34:49.468Z,18.55
2019-04-06T15:37:45.660Z,18.07
2019-04-06T15:40:20.042Z,19.57
2019-04-06T15:43:00.453Z,18.90
2019-04-06T15:45:48.702Z,16.32
2019-04-06T15:48:37.463Z,17.52
2019-04-06T15:51:28.062Z,17.45
2019-04-06T15:54:11.072Z,18.17
2019-04-06T15:57:03.869Z,19.87
2019-04-06T16:00:03.240Z,16.80
2019-04-06T16:02:48.992Z,14.80
2019-04-06T16:05:31.383Z,15.93
2019-04-06T16:08:21.058Z,15.30
2019-04-06T16:11:06.950Z,17.92
2019-04-06T16:13:52.438Z,17.15
2019-04-06T16:16:26.196Z,16.90
2019-04-06T16:19:16.058Z,15.72
2019-04-06T16:22:06.751Z,15.08
2019-04-06T16:25:05.988Z,16.27
2019-04-06T16:28:01.972Z,16.30
2019-04-06T16:30:44.781Z,14.70
2019-04-06T16:33:25.118Z,14.25
2019-04-06T16:36:18.167Z,14.25
2019-04-06T16:39:04.051Z,13.95
2019-04-06T16:41:51.294Z,13.05
2019-04-06T16:44:27.311Z,12.45
2019-04-06T16:47:14.191Z,13.68
2019-04-06T16:50:10.976Z,12.35
2019-04-06T16:52:57.949Z,13.10
2019-04-06T16:55:44.883Z,12.82
2019-04-06T16:58:30.935Z,11.50
2019-04-06T17:01:08.463Z,11.70
2019-04-06T17:03:58.888Z,13.65
2019-04-06T17:06:54.986Z,14.60
2019-04-06T17:09:34.974Z,11.78
2019-04-06T17:12:28.237Z,14.07
2019-04-06T17:15:14.052Z,13.28
2019-04-06T17:17:59.853Z,12.90
2019-04-06T17:20:45.898Z,13.72
2019-04-06T17:23:41.787Z,18.02
2019-04-06T17:26:44.526Z,14.15
2019-04-06T17:29:30.201Z,13.65
2019-04-06T17:32:04.221Z,12.05
2019-04-06T17:34:38.531Z,13.85
2019-04-06T17:37:20.211Z,13.43
2019-04-06T17:40:26.539Z,12.88
2019-04-06T17:43:16.331Z,14.45
2019-04-06T17:46:01.610Z,15.70
2019-04-06T17:49:06.691Z,17.65
2019-04-06T17:51:53.646Z,16.55
2019-04-06T17:54:31.200Z,21.87
2019-04-06T17:57:16.852Z,17.10
2019-04-06T18:00:21.882Z,17.40
2019-04-06T18:03:14.669Z,18.12
2019-04-06T18:06:02.470Z,18.70
2019-04-06T18:08:47.325Z,18.00
2019-04-06T18:11:40.266Z,17.85
2019-04-06T18:14:08.199Z,19.90
2019-04-06T18:16:36.943Z,20.72
2019-04-06T18:19:06.255Z,17.85
2019-04-06T18:21:34.572Z,26.05
2019-04-06T18:24:03.547Z,21.73
2019-04-06T18:26:31.655Z,22.85
2019-04-06T18:28:59.582Z,22.70
2019-04-06T18:31:52.622Z,24.07
2019-04-06T18:34:20.690Z,26.17
2019-04-06T18:37:00.271Z,21.75
2019-04-06T18:39:28.186Z,24.10
2019-04-06T18:41:56.402Z,22.55
2019-04-06T18:44:24.419Z,24.10
2019-04-06T18:46:52.881Z,25.52
2019-04-06T18:49:20.811Z,25.45
2019-04-06T18:51:49.034Z,23.95
2019-04-06T18:54:16.969Z,25.30
2019-04-06T18:56:44.820Z,25.92
2019-04-06T18:59:12.970Z,26.75
2019-04-06T19:01:41.415Z,28.20
2019-04-06T19:04:10.375Z,26.87
2019-04-06T19:06:38.490Z,26.85
2019-04-06T19:09:19.389Z,30.12
2019-04-06T19:11:38.117Z,27.77
2019-04-06T19:14:06.239Z,28.92
2019-04-06T19:16:34.171Z,28.47
2019-04-06T19:19:02.412Z,28.40
2019-04-06T19:21:30.972Z,28.38
2019-04-06T19:23:58.916Z,29.92
2019-04-06T19:26:26.807Z,26.52
2019-04-06T19:28:55.274Z,31.17
2019-04-06T19:31:23.257Z,29.27
2019-04-06T19:33:51.167Z,27.60
2019-04-06T19:36:19.187Z,28.95
2019-04-06T19:38:47.390Z,30.17
2019-04-06T19:41:15.691Z,27.17
2019-04-06T19:43:44.293Z,27.40
2019-04-06T19:46:12.374Z,28.55
2019-04-06T19:48:40.779Z,27.98
2019-04-06T19:51:09.320Z,27.27
2019-04-06T19:53:37.399Z,26.50
2019-04-06T19:56:05.840Z,30.52
2019-04-06T19:58:33.832Z,28.35
2019-04-06T20:01:01.688Z,26.87
2019-04-06T20:03:36.495Z,27.85
2019-04-06T20:05:59.330Z,29.00
2019-04-06T20:08:27.267Z,28.55
2019-04-06T20:10:55.550Z,26.05
2019-04-06T20:13:23.498Z,28.40
2019-04-06T20:15:51.817Z,26.33
2019-04-06T20:18:19.884Z,25.65
2019-04-06T20:20:47.933Z,27.27
2019-04-06T20:23:16.425Z,26.00
2019-04-06T20:25:44.357Z,29.98
2019-04-06T20:28:12.326Z,27.50
2019-04-06T20:30:40.178Z,27.27
2019-04-06T20:33:08.100Z,27.13
2019-04-06T20:35:36.103Z,27.50
2019-04-06T20:38:04.145Z,28.35
2019-04-06T20:40:32.401Z,28.17
2019-04-06T20:43:00.553Z,29.65
2019-04-06T20:45:28.527Z,31.33
2019-04-06T20:47:56.512Z,31.05
2019-04-06T20:50:24.522Z,34.13
2019-04-06T20:52:52.506Z,32.40
2019-04-06T20:55:20.639Z,28.83
2019-04-06T20:57:48.497Z,27.13
2019-04-06T21:00:16.548Z,29.30
2019-04-06T21:02:44.498Z,23.70
2019-04-06T21:05:12.518Z,25.55
2019-04-06T21:07:40.502Z,27.32
2019-04-06T21:10:08.792Z,24.65
2019-04-06T21:12:36.965Z,27.15
2019-04-06T21:15:15.913Z,27.25
2019-04-06T21:17:35.282Z,30.25
2019-04-06T21:20:03.639Z,26.05
2019-04-06T21:22:31.536Z,27.93
2019-04-06T21:24:59.506Z,26.00
2019-04-06T21:27:27.406Z,21.75
2019-04-06T21:29:56.047Z,28.90
2019-04-06T21:32:24.220Z,22.07
2019-04-06T21:34:52.190Z,26.07
2019-04-06T21:37:20.118Z,26.55
2019-04-06T21:39:48.446Z,24.67
2019-04-06T21:42:16.466Z,27.32
2019-04-06T21:44:44.359Z,24.60
2019-04-06T21:47:12.276Z,29.87
2019-04-06T21:49:40.225Z,25.08
2019-04-06T21:52:08.157Z,27.87
2019-04-06T21:54:36.064Z,24.18
2019-04-06T21:57:04.308Z,25.40
2019-04-06T21:59:32.374Z,24.87
2019-04-06T22:02:00.868Z,25.90
2019-04-06T22:04:29.347Z,26.30
2019-04-06T22:06:57.363Z,25.60
2019-04-06T22:09:25.486Z,24.45
2019-04-06T22:11:53.388Z,27.07
2019-04-06T22:14:21.328Z,27.67
2019-04-06T22:16:49.381Z,29.05
2019-04-06T22:19:17.230Z,29.15
2019-04-06T22:21:45.293Z,28.12
2019-04-06T22:24:13.724Z,30.02
2019-04-06T22:26:41.631Z,29.92
2019-04-06T22:29:09.543Z,24.40
2019-04-06T22:31:37.425Z,26.75
2019-04-06T22:34:05.495Z,28.45
2019-04-06T22:36:33.374Z,23.00
2019-04-06T22:39:01.295Z,28.15
2019-04-06T22:41:29.808Z,28.55
2019-04-06T22:43:57.863Z,25.25
2019-04-06T22:46:26.242Z,23.38
2019-04-06T22:48:54.395Z,26.10
2019-04-06T22:51:22.335Z,22.55
2019-04-06T22:53:50.826Z,25.60
2019-04-06T22:56:18.827Z,21.60
2019-04-06T22:58:46.706Z,23.98
2019-04-06T23:01:16.286Z,27.50
2019-04-06T23:04:09.481Z,26.00
2019-04-06T23:06:41.556Z,29.12
2019-04-06T23:09:10.111Z,27.58
2019-04-06T23:11:38.384Z,22.93
2019-04-06T23:14:06.459Z,21.82
2019-04-06T23:16:34.394Z,23.60
2019-04-06T23:19:02.288Z,24.65
2019-04-06T23:21:30.179Z,24.20
2019-04-06T23:23:58.111Z,25.80
2019-04-06T23:26:26.168Z,25.05
2019-04-06T23:28:54.147Z,21.57
2019-04-06T23:31:22.404Z,25.70
2019-04-06T23:33:50.560Z,26.77
2019-04-06T23:36:19.185Z,30.05
2019-04-06T23:38:47.234Z,30.43
2019-04-06T23:41:15.168Z,30.97
2019-04-06T23:43:43.022Z,31.90
2019-04-06T23:46:12.217Z,25.85
2019-04-06T23:48:40.114Z,24.07
2019-04-06T23:51:08.036Z,29.30
2019-04-06T23:53:36.052Z,28.85
2019-04-06T23:56:04.562Z,26.07
2019-04-06T23:58:32.545Z,29.45
